createdAt,value
2019-02-04T00:00:29.440Z,4.07
2019-02-04T00:02:56.791Z,3.90
2019-02-04T00:05:23.363Z,4.73
2019-02-04T00:07:50.141Z,4.13
2019-02-04T00:10:16.770Z,4.07
2019-02-04T00:12:43.543Z,3.60
2019-02-04T00:15:10.523Z,3.93
2019-02-04T00:17:37.411Z,4.07
2019-02-04T00:20:07.035Z,4.40
2019-02-04T00:22:33.674Z,3.63
2019-02-04T00:25:00.210Z,3.57
2019-02-04T00:27:27.704Z,3.20
2019-02-04T00:29:54.423Z,4.63
2019-02-04T00:32:21.323Z,3.93
2019-02-04T00:34:49.097Z,5.30
2019-02-04T00:37:15.625Z,4.37
2019-02-04T00:39:43.432Z,4.20
2019-02-04T00:42:09.938Z,3.90
2019-02-04T00:44:36.852Z,3.10
2019-02-04T00:47:03.521Z,4.33
2019-02-04T00:49:30.091Z,4.13
2019-02-04T00:51:57.243Z,3.83
2019-02-04T00:54:23.772Z,3.50
2019-02-04T00:56:50.704Z,3.07
2019-02-04T00:59:17.263Z,3.30
2019-02-04T01:01:43.747Z,5.67
2019-02-04T01:04:10.487Z,3.83
2019-02-04T01:06:36.984Z,3.67
2019-02-04T01:09:06.954Z,5.63
2019-02-04T01:11:33.678Z,3.97
2019-02-04T01:14:01.448Z,4.43
2019-02-04T01:16:28.223Z,3.73
2019-02-04T01:18:55.032Z,3.50
2019-02-04T01:21:21.706Z,4.40
2019-02-04T01:23:48.207Z,5.30
2019-02-04T01:26:15.297Z,3.20
2019-02-04T01:28:42.879Z,3.63
2019-02-04T01:31:09.654Z,3.40
2019-02-04T01:33:36.469Z,4.33
2019-02-04T01:36:03.536Z,4.97
2019-02-04T01:38:30.079Z,4.73
2019-02-04T01:40:56.724Z,4.97
2019-02-04T01:43:23.227Z,4.17
2019-02-04T01:45:49.739Z,3.67
2019-02-04T01:48:16.155Z,3.10
2019-02-04T01:50:42.931Z,4.33
2019-02-04T01:53:09.451Z,2.57
2019-02-04T01:55:35.971Z,4.03
2019-02-04T01:58:02.863Z,5.47
2019-02-04T02:00:32.043Z,4.80
2019-02-04T02:02:58.663Z,4.80
2019-02-04T02:05:25.233Z,3.50
2019-02-04T02:07:52.106Z,3.50
2019-02-04T02:10:21.021Z,3.30
2019-02-04T02:12:47.721Z,2.50
2019-02-04T02:15:14.723Z,3.10
2019-02-04T02:17:41.245Z,4.47
2019-02-04T02:20:11.280Z,5.07
2019-02-04T02:22:37.765Z,4.87
2019-02-04T02:25:05.322Z,3.63
2019-02-04T02:27:31.844Z,4.83
2019-02-04T02:29:58.364Z,5.07
2019-02-04T02:32:24.899Z,4.47
2019-02-04T02:34:51.731Z,4.13
2019-02-04T02:37:18.280Z,4.07
2019-02-04T02:39:44.784Z,4.73
2019-02-04T02:42:11.451Z,4.93
2019-02-04T02:44:38.143Z,4.77
2019-02-04T02:47:04.664Z,4.73
2019-02-04T02:49:31.174Z,5.13
2019-02-04T02:51:57.807Z,4.43
2019-02-04T02:54:24.607Z,7.90
2019-02-04T02:56:51.379Z,6.17
2019-02-04T02:59:17.816Z,5.93
2019-02-04T03:01:44.455Z,6.53
2019-02-04T03:04:12.019Z,6.10
2019-02-04T03:06:38.527Z,5.97
2019-02-04T03:09:06.046Z,5.87
2019-02-04T03:11:34.743Z,5.27
2019-02-04T03:14:01.254Z,5.00
2019-02-04T03:16:28.129Z,4.53
2019-02-04T03:18:54.931Z,4.33
2019-02-04T03:21:21.439Z,4.10
2019-02-04T03:23:48.243Z,5.33
2019-02-04T03:26:14.787Z,4.30
2019-02-04T03:28:41.299Z,5.27
2019-02-04T03:31:09.019Z,3.47
2019-02-04T03:33:36.028Z,4.10
2019-02-04T03:36:02.741Z,3.37
2019-02-04T03:38:29.540Z,4.73
2019-02-04T03:40:56.043Z,6.23
2019-02-04T03:43:22.584Z,5.47
2019-02-04T03:45:49.065Z,5.20
2019-02-04T03:48:15.976Z,5.20
2019-02-04T03:50:42.743Z,4.73
2019-02-04T03:53:09.531Z,4.57
2019-02-04T03:55:36.160Z,4.17
2019-02-04T03:58:03.284Z,4.00
2019-02-04T04:00:34.361Z,3.80
2019-02-04T04:03:01.336Z,5.33
2019-02-04T04:05:28.054Z,3.43
2019-02-04T04:07:55.001Z,3.77
2019-02-04T04:10:21.984Z,3.80
2019-02-04T04:12:48.478Z,4.63
2019-02-04T04:15:15.905Z,4.00
2019-02-04T04:17:42.444Z,3.80
2019-02-04T04:20:11.420Z,6.00
2019-02-04T04:22:38.252Z,4.73
2019-02-04T04:25:08.267Z,3.87
2019-02-04T04:27:35.332Z,3.80
2019-02-04T04:30:05.297Z,4.40
2019-02-04T04:32:32.075Z,3.97
2019-02-04T04:34:58.591Z,4.23
2019-02-04T04:37:25.497Z,5.23
2019-02-04T04:39:52.349Z,4.53
2019-02-04T04:42:18.862Z,5.87
2019-02-04T04:44:45.763Z,3.87
2019-02-04T04:47:12.552Z,3.07
2019-02-04T04:49:39.240Z,3.13
2019-02-04T04:52:06.023Z,4.97
2019-02-04T04:54:32.581Z,3.17
2019-02-04T04:56:59.540Z,3.00
2019-02-04T04:59:27.052Z,2.60
2019-02-04T05:01:53.848Z,3.60
2019-02-04T05:04:20.396Z,6.20
2019-02-04T05:06:46.912Z,5.27
2019-02-04T05:09:13.799Z,3.10
2019-02-04T05:11:40.457Z,3.23
2019-02-04T05:14:07.388Z,5.10
2019-02-04T05:16:33.903Z,3.63
2019-02-04T05:19:00.432Z,4.37
2019-02-04T05:21:27.089Z,3.43
2019-02-04T05:23:53.723Z,3.70
2019-02-04T05:26:20.344Z,3.40
2019-02-04T05:28:46.854Z,3.20
2019-02-04T05:31:13.656Z,3.17
2019-02-04T05:33:42.169Z,3.80
2019-02-04T05:36:08.680Z,3.67
2019-02-04T05:38:35.191Z,3.60
2019-02-04T05:41:01.720Z,4.37
2019-02-04T05:43:28.695Z,3.70
2019-02-04T05:45:56.142Z,4.37
2019-02-04T05:48:22.983Z,4.40
2019-02-04T05:50:49.410Z,3.83
2019-02-04T05:53:16.081Z,3.83
2019-02-04T05:55:42.873Z,4.13
2019-02-04T05:58:09.652Z,4.43
2019-02-04T06:00:40.811Z,4.33
2019-02-04T06:03:07.643Z,4.87
2019-02-04T06:05:34.557Z,4.40
2019-02-04T06:08:01.172Z,3.57
2019-02-04T06:10:27.687Z,3.92
2019-02-04T06:12:54.549Z,4.87
2019-02-04T06:15:21.200Z,3.90
2019-02-04T06:17:47.839Z,4.50
2019-02-04T06:20:20.404Z,3.70
2019-02-04T06:22:47.136Z,4.08
2019-02-04T06:25:13.690Z,4.22
2019-02-04T06:27:40.556Z,3.85
2019-02-04T06:30:10.402Z,5.20
2019-02-04T06:32:36.912Z,6.67
2019-02-04T06:35:05.166Z,6.37
2019-02-04T06:37:31.767Z,5.87
2019-02-04T06:40:00.007Z,5.10
2019-02-04T06:42:26.540Z,4.65
2019-02-04T06:44:53.125Z,4.70
2019-02-04T06:47:21.041Z,5.83
2019-02-04T06:49:47.554Z,5.00
2019-02-04T06:52:14.073Z,4.58
2019-02-04T06:54:40.701Z,4.53
2019-02-04T06:57:07.429Z,11.28
2019-02-04T06:59:34.557Z,6.67
2019-02-04T07:02:01.127Z,7.67
2019-02-04T07:04:27.668Z,5.00
2019-02-04T07:06:54.239Z,5.78
2019-02-04T07:09:21.815Z,5.53
2019-02-04T07:11:48.451Z,4.50
2019-02-04T07:14:15.063Z,4.42
2019-02-04T07:16:41.687Z,5.15
2019-02-04T07:19:08.343Z,8.23
2019-02-04T07:21:35.356Z,8.80
2019-02-04T07:24:01.991Z,7.03
2019-02-04T07:26:28.482Z,9.78
2019-02-04T07:28:55.015Z,8.70
2019-02-04T07:31:21.547Z,9.20
2019-02-04T07:33:48.423Z,7.97
2019-02-04T07:36:15.234Z,8.70
2019-02-04T07:38:41.744Z,7.62
2019-02-04T07:41:08.256Z,7.83
2019-02-04T07:43:34.760Z,9.80
2019-02-04T07:46:01.381Z,11.73
2019-02-04T07:48:28.150Z,7.93
2019-02-04T07:50:54.976Z,9.13
2019-02-04T07:53:21.748Z,9.40
2019-02-04T07:55:48.683Z,13.48
2019-02-04T07:58:15.348Z,14.13
2019-02-04T08:00:41.808Z,10.18
2019-02-04T08:03:08.318Z,17.37
2019-02-04T08:05:34.851Z,12.53
2019-02-04T08:08:01.624Z,8.18
2019-02-04T08:10:28.209Z,8.98
2019-02-04T08:13:01.455Z,8.58
2019-02-04T08:15:26.579Z,7.37
2019-02-04T08:17:54.481Z,7.90
2019-02-04T08:20:22.794Z,9.28
2019-02-04T08:22:49.519Z,14.45
2019-02-04T08:25:16.654Z,20.43
2019-02-04T08:27:43.187Z,20.83
2019-02-04T08:30:25.491Z,16.90
2019-02-04T08:32:52.302Z,14.57
2019-02-04T08:35:18.899Z,11.70
2019-02-04T08:37:45.424Z,9.90
2019-02-04T08:40:16.662Z,8.50
2019-02-04T08:42:43.323Z,7.43
2019-02-04T08:45:11.939Z,7.90
2019-02-04T08:47:38.655Z,7.20
2019-02-04T08:50:18.563Z,7.73
2019-02-04T08:52:45.422Z,7.07
2019-02-04T08:55:12.188Z,6.90
2019-02-04T08:57:38.732Z,6.90
2019-02-04T09:00:17.012Z,6.90
2019-02-04T09:02:43.799Z,7.17
2019-02-04T09:05:12.649Z,7.33
2019-02-04T09:07:40.745Z,7.03
2019-02-04T09:10:11.404Z,6.93
2019-02-04T09:12:38.241Z,8.10
2019-02-04T09:15:08.851Z,7.00
2019-02-04T09:17:36.705Z,7.33
2019-02-04T09:20:10.114Z,6.93
2019-02-04T09:22:35.615Z,6.30
2019-02-04T09:25:03.426Z,6.03
2019-02-04T09:27:29.980Z,6.43
2019-02-04T09:29:56.591Z,5.70
2019-02-04T09:32:23.425Z,5.93
2019-02-04T09:34:49.923Z,6.27
2019-02-04T09:37:16.438Z,6.70
2019-02-04T09:39:42.937Z,7.07
2019-02-04T09:42:09.575Z,6.53
2019-02-04T09:44:36.068Z,7.07
2019-02-04T09:47:02.881Z,7.00
2019-02-04T09:49:29.399Z,6.20
2019-02-04T09:51:56.196Z,6.50
2019-02-04T09:54:22.740Z,6.80
2019-02-04T09:56:49.514Z,7.03
2019-02-04T09:59:16.033Z,6.03
2019-02-04T10:01:42.827Z,5.90
2019-02-04T10:04:09.643Z,5.00
2019-02-04T10:06:36.143Z,5.23
2019-02-04T10:09:05.780Z,4.97
2019-02-04T10:11:32.557Z,4.57
2019-02-04T10:13:59.465Z,5.27
2019-02-04T10:16:26.166Z,4.70
2019-02-04T10:18:52.686Z,4.80
2019-02-04T10:21:19.202Z,4.90
2019-02-04T10:23:45.734Z,5.00
2019-02-04T10:26:12.257Z,5.30
2019-02-04T10:28:38.931Z,6.20
2019-02-04T10:31:05.509Z,7.20
2019-02-04T10:33:32.262Z,5.40
2019-02-04T10:36:00.479Z,5.63
2019-02-04T10:38:26.987Z,5.43
2019-02-04T10:40:53.647Z,6.10
2019-02-04T10:43:20.115Z,5.17
2019-02-04T10:45:46.960Z,3.70
2019-02-04T10:48:13.706Z,3.77
2019-02-04T10:50:46.136Z,3.90
2019-02-04T10:53:10.413Z,2.80
2019-02-04T10:55:37.375Z,3.27
2019-02-04T10:58:07.778Z,2.90
2019-02-04T11:00:34.934Z,2.80
2019-02-04T11:03:02.356Z,3.07
2019-02-04T11:05:31.540Z,2.97
2019-02-04T11:07:58.272Z,2.73
2019-02-04T11:10:32.597Z,3.40
2019-02-04T11:12:59.236Z,3.40
2019-02-04T11:15:26.119Z,3.60
2019-02-04T11:17:52.842Z,3.10
2019-02-04T11:20:21.782Z,4.10
2019-02-04T11:22:48.518Z,4.00
2019-02-04T11:25:15.278Z,3.73
2019-02-04T11:27:42.139Z,3.53
2019-02-04T11:30:18.155Z,3.30
2019-02-04T11:32:44.994Z,3.53
2019-02-04T11:35:11.948Z,3.77
2019-02-04T11:37:38.700Z,4.80
2019-02-04T11:40:12.342Z,4.27
2019-02-04T11:42:39.162Z,3.33
2019-02-04T11:45:07.708Z,6.13
2019-02-04T11:47:34.156Z,7.47
2019-02-04T11:50:01.192Z,9.13
2019-02-04T11:52:27.978Z,5.47
2019-02-04T11:54:54.514Z,3.43
2019-02-04T11:57:20.944Z,3.70
2019-02-04T11:59:47.753Z,4.13
2019-02-04T12:02:14.376Z,3.63
2019-02-04T12:04:41.074Z,6.60
2019-02-04T12:07:07.906Z,5.40
2019-02-04T12:09:34.829Z,4.00
2019-02-04T12:12:01.416Z,3.90
2019-02-04T12:14:27.960Z,3.80
2019-02-04T12:16:54.563Z,3.30
2019-02-04T12:19:21.141Z,3.17
2019-02-04T12:21:47.625Z,2.87
2019-02-04T12:24:14.160Z,3.60
2019-02-04T12:26:40.968Z,3.80
2019-02-04T12:29:07.496Z,3.60
2019-02-04T12:31:34.012Z,2.83
2019-02-04T12:34:00.519Z,3.93
2019-02-04T12:36:27.214Z,3.13
2019-02-04T12:38:53.748Z,2.97
2019-02-04T12:41:20.251Z,3.60
2019-02-04T12:43:46.962Z,2.83
2019-02-04T12:46:14.260Z,3.03
2019-02-04T12:48:40.739Z,3.10
2019-02-04T12:51:07.760Z,3.20
2019-02-04T12:53:34.293Z,2.60
2019-02-04T12:56:00.787Z,3.13
2019-02-04T12:58:27.292Z,2.80
2019-02-04T13:00:54.260Z,2.70
2019-02-04T13:03:20.859Z,2.60
2019-02-04T13:05:49.260Z,2.77
2019-02-04T13:08:15.760Z,2.60
2019-02-04T13:10:43.320Z,2.70
2019-02-04T13:13:12.725Z,2.40
2019-02-04T13:15:39.507Z,2.57
2019-02-04T13:18:06.627Z,2.73
2019-02-04T13:20:33.334Z,3.63
2019-02-04T13:23:00.152Z,2.90
2019-02-04T13:25:27.944Z,2.53
2019-02-04T13:27:54.669Z,2.70
2019-02-04T13:30:23.884Z,2.30
2019-02-04T13:32:50.687Z,3.27
2019-02-04T13:35:17.684Z,2.90
2019-02-04T13:37:44.201Z,3.03
2019-02-04T13:40:20.207Z,3.63
2019-02-04T13:42:46.741Z,3.60
2019-02-04T13:45:16.464Z,3.23
2019-02-04T13:47:43.748Z,3.40
2019-02-04T13:50:13.365Z,2.87
2019-02-04T13:52:40.123Z,3.00
2019-02-04T13:55:10.295Z,2.63
2019-02-04T13:57:37.161Z,2.93
2019-02-04T14:00:07.449Z,2.60
2019-02-04T14:02:33.953Z,2.87
2019-02-04T14:05:00.725Z,2.50
2019-02-04T14:07:27.346Z,3.17
2019-02-04T14:09:54.319Z,2.73
2019-02-04T14:12:21.011Z,3.13
2019-02-04T14:14:47.544Z,2.90
2019-02-04T14:17:14.099Z,2.27
2019-02-04T14:19:41.524Z,2.40
2019-02-04T14:22:09.626Z,2.73
2019-02-04T14:24:37.400Z,2.33
2019-02-04T14:27:04.416Z,2.40
2019-02-04T14:29:33.762Z,2.60
2019-02-04T14:31:59.648Z,2.80
2019-02-04T14:34:26.164Z,2.50
2019-02-04T14:36:52.686Z,2.60
2019-02-04T14:39:19.186Z,2.57
2019-02-04T14:41:45.675Z,2.37
2019-02-04T14:44:16.096Z,3.40
2019-02-04T14:47:01.119Z,2.50
2019-02-04T14:49:46.810Z,2.70
2019-02-04T14:52:38.671Z,2.70
2019-02-04T14:55:17.357Z,2.63
2019-02-04T14:57:52.988Z,2.80
2019-02-04T15:00:23.326Z,2.70
2019-02-04T15:03:19.576Z,3.50
2019-02-04T15:06:01.879Z,3.83
2019-02-04T15:08:48.209Z,4.57
2019-02-04T15:11:28.048Z,3.93
2019-02-04T15:14:02.401Z,5.70
2019-02-04T15:16:35.942Z,5.47
2019-02-04T15:19:37.741Z,5.07
2019-02-04T15:22:33.439Z,5.23
2019-02-04T15:25:06.896Z,4.50
2019-02-04T15:28:01.470Z,3.60
2019-02-04T15:30:51.320Z,4.63
2019-02-04T15:33:50.113Z,3.93
2019-02-04T15:36:25.557Z,4.10
2019-02-04T15:39:02.626Z,4.70
2019-02-04T15:41:59.450Z,4.50
2019-02-04T15:44:35.840Z,5.10
2019-02-04T15:47:13.630Z,4.33
2019-02-04T15:50:17.526Z,3.90
2019-02-04T15:52:45.817Z,4.73
2019-02-04T15:55:14.420Z,5.37
2019-02-04T15:57:41.184Z,4.20
2019-02-04T16:00:10.903Z,4.07
2019-02-04T16:02:37.480Z,3.53
2019-02-04T16:05:06.902Z,3.73
2019-02-04T16:07:39.688Z,4.07
2019-02-04T16:10:13.924Z,3.37
2019-02-04T16:12:41.757Z,2.97
2019-02-04T16:15:13.166Z,3.67
2019-02-04T16:17:39.867Z,3.97
2019-02-04T16:20:13.111Z,4.53
2019-02-04T16:22:40.031Z,4.50
2019-02-04T16:25:09.603Z,4.87
2019-02-04T16:27:36.555Z,3.33
2019-02-04T16:30:06.824Z,5.03
2019-02-04T16:32:33.626Z,4.53
2019-02-04T16:35:00.368Z,4.50
2019-02-04T16:37:27.419Z,3.90
2019-02-04T16:39:53.919Z,3.83
2019-02-04T16:42:20.698Z,5.53
2019-02-04T16:44:47.188Z,4.80
2019-02-04T16:47:13.699Z,5.50
2019-02-04T16:49:40.324Z,4.23
2019-02-04T16:52:07.226Z,4.50
2019-02-04T16:54:33.792Z,6.23
2019-02-04T16:57:00.599Z,4.57
2019-02-04T16:59:27.384Z,5.53
2019-02-04T17:01:53.904Z,11.17
2019-02-04T17:04:20.453Z,6.73
2019-02-04T17:06:46.998Z,7.90
2019-02-04T17:09:13.704Z,6.67
2019-02-04T17:11:40.307Z,5.60
2019-02-04T17:14:07.085Z,5.23
2019-02-04T17:16:33.818Z,5.83
2019-02-04T17:19:00.327Z,4.57
2019-02-04T17:21:26.826Z,4.83
2019-02-04T17:23:53.479Z,4.90
2019-02-04T17:26:20.325Z,5.03
2019-02-04T17:28:46.854Z,4.27
2019-02-04T17:31:13.660Z,6.67
2019-02-04T17:33:40.508Z,6.03
2019-02-04T17:36:07.027Z,5.43
2019-02-04T17:38:34.846Z,6.63
2019-02-04T17:41:01.394Z,5.93
2019-02-04T17:43:32.533Z,5.63
2019-02-04T17:46:03.288Z,5.00
2019-02-04T17:48:29.804Z,5.80
2019-02-04T17:50:56.638Z,6.20
2019-02-04T17:53:33.611Z,5.40
2019-02-04T17:55:51.899Z,6.47
2019-02-04T17:58:18.514Z,7.50
2019-02-04T18:00:49.517Z,7.10
2019-02-04T18:03:16.434Z,6.07
2019-02-04T18:05:43.454Z,6.50
2019-02-04T18:08:10.592Z,7.13
2019-02-04T18:10:37.248Z,6.60
2019-02-04T18:13:04.459Z,5.83
2019-02-04T18:15:31.488Z,5.63
2019-02-04T18:17:58.037Z,6.13
2019-02-04T18:20:24.807Z,5.90
2019-02-04T18:22:51.691Z,5.63
2019-02-04T18:25:20.017Z,7.97
2019-02-04T18:27:47.014Z,6.80
2019-02-04T18:30:19.547Z,8.50
2019-02-04T18:32:46.355Z,5.40
2019-02-04T18:35:14.584Z,6.30
2019-02-04T18:37:41.305Z,8.47
2019-02-04T18:40:13.842Z,10.33
2019-02-04T18:42:40.658Z,12.50
2019-02-04T18:45:16.281Z,10.77
2019-02-04T18:47:43.400Z,11.53
2019-02-04T18:50:12.616Z,13.67
2019-02-04T18:52:39.447Z,12.80
2019-02-04T18:55:12.808Z,9.27
2019-02-04T18:57:40.599Z,8.80
2019-02-04T19:00:13.971Z,9.20
2019-02-04T19:02:40.479Z,8.30
2019-02-04T19:05:09.579Z,7.07
2019-02-04T19:07:36.818Z,7.43
2019-02-04T19:10:06.938Z,6.97
2019-02-04T19:12:33.575Z,7.80
2019-02-04T19:15:01.095Z,8.73
2019-02-04T19:17:27.970Z,8.23
2019-02-04T19:19:54.767Z,9.23
2019-02-04T19:22:21.534Z,10.77
2019-02-04T19:24:48.243Z,12.27
2019-02-04T19:27:15.011Z,12.77
2019-02-04T19:29:41.819Z,12.23
2019-02-04T19:32:08.656Z,11.53
2019-02-04T19:34:35.452Z,11.67
2019-02-04T19:37:01.965Z,11.47
2019-02-04T19:39:28.762Z,10.63
2019-02-04T19:41:55.307Z,9.33
2019-02-04T19:44:22.141Z,10.47
2019-02-04T19:46:48.799Z,8.70
2019-02-04T19:49:15.606Z,11.37
2019-02-04T19:51:42.139Z,10.30
2019-02-04T19:54:08.655Z,7.77
2019-02-04T19:56:35.160Z,12.33
2019-02-04T19:59:01.871Z,12.97
2019-02-04T20:01:28.611Z,12.60
2019-02-04T20:03:55.220Z,11.30
2019-02-04T20:06:21.959Z,12.50
2019-02-04T20:08:48.781Z,11.13
2019-02-04T20:11:15.293Z,11.47
2019-02-04T20:13:42.824Z,10.43
2019-02-04T20:16:09.427Z,10.57
2019-02-04T20:18:35.990Z,11.17
2019-02-04T20:21:03.303Z,12.60
2019-02-04T20:23:30.031Z,12.47
2019-02-04T20:25:57.058Z,12.20
2019-02-04T20:28:23.595Z,11.37
2019-02-04T20:30:50.209Z,11.03
2019-02-04T20:33:16.821Z,10.97
2019-02-04T20:35:43.654Z,15.03
2019-02-04T20:38:10.407Z,12.57
2019-02-04T20:40:37.191Z,12.07
2019-02-04T20:43:04.978Z,12.80
2019-02-04T20:45:31.707Z,11.60
2019-02-04T20:47:58.900Z,12.43
2019-02-04T20:50:31.481Z,11.53
2019-02-04T20:52:58.984Z,11.53
2019-02-04T20:55:25.832Z,11.60
2019-02-04T20:57:52.745Z,13.70
2019-02-04T21:00:27.858Z,13.00
2019-02-04T21:02:54.462Z,15.17
2019-02-04T21:05:21.173Z,14.03
2019-02-04T21:07:47.964Z,14.80
2019-02-04T21:10:22.349Z,14.53
2019-02-04T21:12:49.243Z,15.43
2019-02-04T21:15:19.398Z,14.10
2019-02-04T21:17:46.215Z,13.27
2019-02-04T21:20:15.226Z,11.83
2019-02-04T21:22:42.130Z,12.43
2019-02-04T21:25:10.645Z,12.40
2019-02-04T21:27:37.565Z,13.07
2019-02-04T21:30:08.290Z,11.97
2019-02-04T21:32:35.106Z,13.70
2019-02-04T21:35:01.766Z,13.33
2019-02-04T21:37:28.547Z,12.37
2019-02-04T21:39:55.294Z,11.90
2019-02-04T21:42:21.794Z,12.90
2019-02-04T21:44:50.235Z,12.17
2019-02-04T21:47:16.633Z,12.07
2019-02-04T21:49:43.237Z,12.83
2019-02-04T21:52:09.778Z,12.23
2019-02-04T21:54:36.710Z,10.77
2019-02-04T21:57:03.371Z,12.97
2019-02-04T21:59:30.149Z,12.83
2019-02-04T22:01:57.391Z,11.17
2019-02-04T22:04:27.855Z,12.47
2019-02-04T22:06:54.902Z,11.90
2019-02-04T22:09:23.148Z,12.80
2019-02-04T22:11:49.595Z,13.00
2019-02-04T22:14:16.634Z,12.83
2019-02-04T22:16:43.631Z,12.37
2019-02-04T22:19:10.549Z,12.60
2019-02-04T22:21:37.314Z,12.73
2019-02-04T22:24:04.223Z,12.43
2019-02-04T22:26:30.702Z,13.20
2019-02-04T22:28:57.339Z,12.00
2019-02-04T22:31:24.143Z,12.33
2019-02-04T22:33:51.662Z,12.33
2019-02-04T22:36:18.456Z,14.03
2019-02-04T22:38:44.977Z,11.83
2019-02-04T22:41:11.468Z,11.27
2019-02-04T22:43:37.928Z,11.60
2019-02-04T22:46:04.946Z,12.23
2019-02-04T22:48:31.450Z,13.80
2019-02-04T22:50:57.859Z,9.63
2019-02-04T22:53:24.681Z,13.97
2019-02-04T22:55:51.184Z,10.47
2019-02-04T22:58:17.954Z,9.07
2019-02-04T23:00:51.119Z,11.40
2019-02-04T23:03:21.825Z,10.87
2019-02-04T23:05:48.651Z,7.90
2019-02-04T23:08:15.359Z,9.83
2019-02-04T23:10:43.798Z,9.20
2019-02-04T23:13:10.408Z,11.07
2019-02-04T23:15:37.357Z,8.30
2019-02-04T23:18:04.319Z,7.93
2019-02-04T23:20:30.954Z,8.00
2019-02-04T23:22:57.587Z,7.23
2019-02-04T23:25:24.187Z,8.23
2019-02-04T23:27:50.819Z,8.37
2019-02-04T23:30:18.329Z,8.17
2019-02-04T23:32:44.969Z,7.97
2019-02-04T23:35:11.925Z,10.07
2019-02-04T23:37:38.753Z,15.00
2019-02-04T23:40:08.770Z,12.70
2019-02-04T23:42:35.487Z,13.73
2019-02-04T23:45:07.851Z,12.60
2019-02-04T23:47:34.364Z,13.13
2019-02-04T23:50:05.687Z,12.50
2019-02-04T23:52:32.514Z,12.77
2019-02-04T23:54:59.327Z,11.17
2019-02-04T23:57:25.828Z,10.40
2019-02-04T23:59:52.877Z,9.30
